createdAt,value
2018-07-03T00:00:13.386Z,1.00
2018-07-03T00:02:41.719Z,0.70
2018-07-03T00:05:10.999Z,0.80
2018-07-03T00:07:39.339Z,0.80
2018-07-03T00:10:09.455Z,0.97
2018-07-03T00:12:37.907Z,0.70
2018-07-03T00:15:06.519Z,1.03
2018-07-03T00:17:34.903Z,0.70
2018-07-03T00:20:03.319Z,1.10
2018-07-03T00:22:31.676Z,0.67
2018-07-03T00:25:00.021Z,0.80
2018-07-03T00:27:28.339Z,0.90
2018-07-03T00:29:56.667Z,0.67
2018-07-03T00:32:25.039Z,1.03
2018-07-03T00:34:53.403Z,1.00
2018-07-03T00:37:21.738Z,1.23
2018-07-03T00:39:50.067Z,0.90
2018-07-03T00:42:18.375Z,0.70
2018-07-03T00:44:49.679Z,0.77
2018-07-03T00:47:18.005Z,0.93
2018-07-03T00:49:46.338Z,0.60
2018-07-03T00:52:14.646Z,0.90
2018-07-03T00:54:42.984Z,0.50
2018-07-03T00:57:11.330Z,0.93
2018-07-03T00:59:50.819Z,0.80
2018-07-03T01:02:19.264Z,0.70
2018-07-03T01:04:47.602Z,0.80
2018-07-03T01:07:16.018Z,0.97
2018-07-03T01:09:44.355Z,0.83
2018-07-03T01:12:12.671Z,0.80
2018-07-03T01:14:41.008Z,0.60
2018-07-03T01:17:08.978Z,1.03
2018-07-03T01:19:37.343Z,0.80
2018-07-03T01:22:05.746Z,0.90
2018-07-03T01:24:34.079Z,0.87
2018-07-03T01:27:02.406Z,0.70
2018-07-03T01:29:30.722Z,0.80
2018-07-03T01:31:59.058Z,0.80
2018-07-03T01:34:27.375Z,0.87
2018-07-03T01:36:55.757Z,0.83
2018-07-03T01:39:24.582Z,0.73
2018-07-03T01:41:52.916Z,0.80
2018-07-03T01:44:21.226Z,0.93
2018-07-03T01:46:49.583Z,0.80
2018-07-03T01:49:17.982Z,0.83
2018-07-03T01:51:46.354Z,1.00
2018-07-03T01:54:14.676Z,0.90
2018-07-03T01:56:43.011Z,0.60
2018-07-03T01:59:11.339Z,0.90
2018-07-03T02:01:39.711Z,0.80
2018-07-03T02:04:08.023Z,0.97
2018-07-03T02:06:36.358Z,1.20
2018-07-03T02:09:08.231Z,1.00
2018-07-03T02:11:36.567Z,0.83
2018-07-03T02:14:05.067Z,0.50
2018-07-03T02:16:33.399Z,0.90
2018-07-03T02:19:01.723Z,1.20
2018-07-03T02:21:30.103Z,1.00
2018-07-03T02:23:58.593Z,0.73
2018-07-03T02:26:26.935Z,0.90
2018-07-03T02:28:55.312Z,1.00
2018-07-03T02:31:23.814Z,1.10
2018-07-03T02:33:52.523Z,1.07
2018-07-03T02:36:20.871Z,0.73
2018-07-03T02:38:49.207Z,1.10
2018-07-03T02:41:17.543Z,0.60
2018-07-03T02:43:45.887Z,1.00
2018-07-03T02:46:14.221Z,0.67
2018-07-03T02:48:42.593Z,0.80
2018-07-03T02:51:10.939Z,0.70
2018-07-03T02:53:39.281Z,0.80
2018-07-03T02:56:07.617Z,0.83
2018-07-03T02:58:36.007Z,0.60
2018-07-03T03:01:04.556Z,0.90
2018-07-03T03:03:32.891Z,0.83
2018-07-03T03:06:01.780Z,0.73
2018-07-03T03:08:30.126Z,1.30
2018-07-03T03:10:58.455Z,0.80
2018-07-03T03:13:26.803Z,0.83
2018-07-03T03:15:55.159Z,0.60
2018-07-03T03:18:23.507Z,0.70
2018-07-03T03:20:51.826Z,0.80
2018-07-03T03:23:20.239Z,1.00
2018-07-03T03:25:48.559Z,1.00
2018-07-03T03:28:16.899Z,0.70
2018-07-03T03:30:45.272Z,1.27
2018-07-03T03:33:13.607Z,0.80
2018-07-03T03:35:41.930Z,0.90
2018-07-03T03:38:10.284Z,0.80
2018-07-03T03:40:38.603Z,1.40
2018-07-03T03:43:06.948Z,1.23
2018-07-03T03:45:35.274Z,0.90
2018-07-03T03:48:03.639Z,0.80
2018-07-03T03:50:31.979Z,0.87
2018-07-03T03:53:00.327Z,0.73
2018-07-03T03:55:28.662Z,0.80
2018-07-03T03:57:56.990Z,1.03
2018-07-03T04:00:25.337Z,1.27
2018-07-03T04:02:53.655Z,0.67
2018-07-03T04:05:22.021Z,1.00
2018-07-03T04:07:50.346Z,0.97
2018-07-03T04:10:18.722Z,0.97
2018-07-03T04:12:46.786Z,1.20
2018-07-03T04:15:15.120Z,0.80
2018-07-03T04:17:43.443Z,0.93
2018-07-03T04:20:11.794Z,1.30
2018-07-03T04:22:40.131Z,0.93
2018-07-03T04:25:08.469Z,0.70
2018-07-03T04:27:36.808Z,1.03
2018-07-03T04:30:05.506Z,0.90
2018-07-03T04:32:33.834Z,0.90
2018-07-03T04:35:02.187Z,1.07
2018-07-03T04:37:30.503Z,0.67
2018-07-03T04:39:59.019Z,0.73
2018-07-03T04:42:27.339Z,0.73
2018-07-03T04:44:55.762Z,0.80
2018-07-03T04:47:24.109Z,0.93
2018-07-03T04:49:52.450Z,1.00
2018-07-03T04:52:20.775Z,0.90
2018-07-03T04:54:49.126Z,1.03
2018-07-03T04:57:17.455Z,1.00
2018-07-03T04:59:46.043Z,1.03
2018-07-03T05:02:14.358Z,1.00
2018-07-03T05:04:42.719Z,0.87
2018-07-03T05:07:11.035Z,1.20
2018-07-03T05:09:39.372Z,0.77
2018-07-03T05:12:07.703Z,0.87
2018-07-03T05:14:35.882Z,0.80
2018-07-03T05:17:04.222Z,1.20
2018-07-03T05:19:32.551Z,0.90
2018-07-03T05:22:00.878Z,0.70
2018-07-03T05:24:29.231Z,0.77
2018-07-03T05:26:57.643Z,0.60
2018-07-03T05:29:26.193Z,0.70
2018-07-03T05:31:54.522Z,0.73
2018-07-03T05:34:22.858Z,1.13
2018-07-03T05:36:51.231Z,0.90
2018-07-03T05:39:19.571Z,0.90
2018-07-03T05:41:48.516Z,0.80
2018-07-03T05:44:16.858Z,0.70
2018-07-03T05:46:44.937Z,0.70
2018-07-03T05:49:13.310Z,0.87
2018-07-03T05:51:41.672Z,0.93
2018-07-03T05:54:10.047Z,0.73
2018-07-03T05:56:38.554Z,0.80
2018-07-03T05:59:06.846Z,0.90
2018-07-03T06:01:35.349Z,0.70
2018-07-03T06:04:03.891Z,1.30
2018-07-03T06:06:32.227Z,0.90
2018-07-03T06:09:00.623Z,0.80
2018-07-03T06:11:28.674Z,0.80
2018-07-03T06:13:56.991Z,0.77
2018-07-03T06:16:25.351Z,0.90
2018-07-03T06:18:53.695Z,0.97
2018-07-03T06:21:22.067Z,1.10
2018-07-03T06:23:50.396Z,1.17
2018-07-03T06:26:18.743Z,0.70
2018-07-03T06:28:47.153Z,1.00
2018-07-03T06:31:15.455Z,0.80
2018-07-03T06:33:43.809Z,0.83
2018-07-03T06:36:12.179Z,1.00
2018-07-03T06:38:40.588Z,1.10
2018-07-03T06:41:08.926Z,1.23
2018-07-03T06:43:37.282Z,1.10
2018-07-03T06:46:05.733Z,0.90
2018-07-03T06:48:34.076Z,0.83
2018-07-03T06:51:02.415Z,1.33
2018-07-03T06:53:30.768Z,1.00
2018-07-03T06:55:58.828Z,1.23
2018-07-03T06:58:27.142Z,1.17
2018-07-03T07:00:55.522Z,0.87
2018-07-03T07:03:23.846Z,1.20
2018-07-03T07:05:52.182Z,1.00
2018-07-03T07:08:20.503Z,1.00
2018-07-03T07:10:48.862Z,1.03
2018-07-03T07:13:17.193Z,0.90
2018-07-03T07:15:45.535Z,1.30
2018-07-03T07:18:13.871Z,0.80
2018-07-03T07:20:42.227Z,1.10
2018-07-03T07:23:10.578Z,1.30
2018-07-03T07:25:38.938Z,1.10
2018-07-03T07:28:07.271Z,1.07
2018-07-03T07:30:35.611Z,1.03
2018-07-03T07:33:03.940Z,1.30
2018-07-03T07:35:32.303Z,0.77
2018-07-03T07:38:00.626Z,1.40
2018-07-03T07:40:28.696Z,1.17
2018-07-03T07:42:57.022Z,0.80
2018-07-03T07:45:25.390Z,1.10
2018-07-03T07:47:53.825Z,1.13
2018-07-03T07:50:22.155Z,1.00
2018-07-03T07:52:50.471Z,1.50
2018-07-03T07:55:18.810Z,1.33
2018-07-03T07:57:47.164Z,0.90
2018-07-03T08:00:15.535Z,1.37
2018-07-03T08:02:43.891Z,1.30
2018-07-03T08:05:12.265Z,1.00
2018-07-03T08:07:40.650Z,1.27
2018-07-03T08:10:09.001Z,1.37
2018-07-03T08:12:37.342Z,1.10
2018-07-03T08:15:06.004Z,1.10
2018-07-03T08:17:34.384Z,1.00
2018-07-03T08:20:02.443Z,0.90
2018-07-03T08:22:30.791Z,0.83
2018-07-03T08:24:59.118Z,1.07
2018-07-03T08:27:27.498Z,1.10
2018-07-03T08:29:55.810Z,1.00
2018-07-03T08:32:24.191Z,1.00
2018-07-03T08:34:52.847Z,1.10
2018-07-03T08:37:21.221Z,0.90
2018-07-03T08:39:49.535Z,1.30
2018-07-03T08:42:17.867Z,1.00
2018-07-03T08:44:46.251Z,1.23
2018-07-03T08:47:14.607Z,1.10
2018-07-03T08:49:42.954Z,1.10
2018-07-03T08:52:11.284Z,0.90
2018-07-03T08:54:39.662Z,1.30
2018-07-03T08:57:08.043Z,1.00
2018-07-03T08:59:36.391Z,1.10
2018-07-03T09:02:04.800Z,1.17
2018-07-03T09:04:33.114Z,1.00
2018-07-03T09:07:01.465Z,1.00
2018-07-03T09:09:29.782Z,1.10
2018-07-03T09:11:58.231Z,1.30
2018-07-03T09:14:26.655Z,1.50
2018-07-03T09:16:54.995Z,1.13
2018-07-03T09:19:23.306Z,1.20
2018-07-03T09:21:51.638Z,1.50
2018-07-03T09:24:19.949Z,1.40
2018-07-03T09:26:48.312Z,1.37
2018-07-03T09:29:16.652Z,1.07
2018-07-03T09:31:44.987Z,1.20
2018-07-03T09:34:13.315Z,1.10
2018-07-03T09:36:41.655Z,1.60
2018-07-03T09:39:10.646Z,1.20
2018-07-03T09:41:39.766Z,1.10
2018-07-03T09:44:08.424Z,1.23
2018-07-03T09:46:36.812Z,1.17
2018-07-03T09:49:05.429Z,1.13
2018-07-03T09:51:33.771Z,1.03
2018-07-03T09:54:02.111Z,1.10
2018-07-03T09:56:31.219Z,1.10
2018-07-03T09:58:59.534Z,1.23
2018-07-03T10:01:27.848Z,1.30
2018-07-03T10:03:56.189Z,1.20
2018-07-03T10:06:24.500Z,1.30
2018-07-03T10:08:52.869Z,1.10
2018-07-03T10:11:21.182Z,1.17
2018-07-03T10:13:49.517Z,1.17
2018-07-03T10:16:17.835Z,1.60
2018-07-03T10:18:46.196Z,1.20
2018-07-03T10:21:14.511Z,1.43
2018-07-03T10:23:42.852Z,1.50
2018-07-03T10:26:11.166Z,1.20
2018-07-03T10:28:39.491Z,1.27
2018-07-03T10:31:07.835Z,1.40
2018-07-03T10:33:36.167Z,1.37
2018-07-03T10:36:04.613Z,1.10
2018-07-03T10:38:32.956Z,1.33
2018-07-03T10:41:01.313Z,1.20
2018-07-03T10:43:29.650Z,1.20
2018-07-03T10:45:57.975Z,1.50
2018-07-03T10:48:26.347Z,1.30
2018-07-03T10:50:54.663Z,1.20
2018-07-03T10:53:23.015Z,1.20
2018-07-03T10:55:51.380Z,1.10
2018-07-03T10:58:19.712Z,1.20
2018-07-03T11:00:48.042Z,1.10
2018-07-03T11:03:16.367Z,1.17
2018-07-03T11:05:44.718Z,1.47
2018-07-03T11:08:13.055Z,1.30
2018-07-03T11:10:41.394Z,1.37
2018-07-03T11:13:09.731Z,1.20
2018-07-03T11:15:38.039Z,1.40
2018-07-03T11:18:06.377Z,1.30
2018-07-03T11:20:34.727Z,1.10
2018-07-03T11:23:03.112Z,1.23
2018-07-03T11:25:31.436Z,0.90
2018-07-03T11:27:59.779Z,1.20
2018-07-03T11:30:28.291Z,1.40
2018-07-03T11:32:56.618Z,1.13
2018-07-03T11:35:24.951Z,1.60
2018-07-03T11:37:53.303Z,1.10
2018-07-03T11:40:21.639Z,1.00
2018-07-03T11:42:50.014Z,1.20
2018-07-03T11:45:18.327Z,1.23
2018-07-03T11:47:46.675Z,1.60
2018-07-03T11:50:15.018Z,1.30
2018-07-03T11:52:43.368Z,1.47
2018-07-03T11:55:11.866Z,1.37
2018-07-03T11:57:39.942Z,1.17
2018-07-03T12:00:08.303Z,1.10
2018-07-03T12:02:36.639Z,1.30
2018-07-03T12:05:05.058Z,1.20
2018-07-03T12:07:33.392Z,1.40
2018-07-03T12:10:01.731Z,1.03
2018-07-03T12:12:30.067Z,1.40
2018-07-03T12:14:58.412Z,1.20
2018-07-03T12:17:26.737Z,1.10
2018-07-03T12:19:55.285Z,1.40
2018-07-03T12:22:23.755Z,1.33
2018-07-03T12:24:52.100Z,1.50
2018-07-03T12:27:20.534Z,1.07
2018-07-03T12:29:49.004Z,1.30
2018-07-03T12:32:17.342Z,1.30
2018-07-03T12:34:45.691Z,1.23
2018-07-03T12:37:14.033Z,1.40
2018-07-03T12:39:42.385Z,1.30
2018-07-03T12:42:10.843Z,1.30
2018-07-03T12:44:38.963Z,1.13
2018-07-03T12:47:07.520Z,1.93
2018-07-03T12:49:35.852Z,1.10
2018-07-03T12:52:03.889Z,1.37
2018-07-03T12:54:32.243Z,1.50
2018-07-03T12:57:00.755Z,1.53
2018-07-03T12:59:29.211Z,1.27
2018-07-03T13:01:57.576Z,1.10
2018-07-03T13:04:25.922Z,1.27
2018-07-03T13:06:54.339Z,2.00
2018-07-03T13:09:22.711Z,1.20
2018-07-03T13:11:51.139Z,1.10
2018-07-03T13:14:19.592Z,1.27
2018-07-03T13:16:47.900Z,1.33
2018-07-03T13:19:16.288Z,1.00
2018-07-03T13:21:44.623Z,1.40
2018-07-03T13:24:13.282Z,1.70
2018-07-03T13:26:41.742Z,1.20
2018-07-03T13:29:10.170Z,1.60
2018-07-03T13:31:38.530Z,1.20
2018-07-03T13:34:06.962Z,1.20
2018-07-03T13:36:35.327Z,1.10
2018-07-03T13:39:04.055Z,1.50
2018-07-03T13:41:32.399Z,1.13
2018-07-03T13:44:00.725Z,1.17
2018-07-03T13:46:29.062Z,1.60
2018-07-03T13:48:57.398Z,1.23
2018-07-03T13:51:25.741Z,1.60
2018-07-03T13:53:54.114Z,1.20
2018-07-03T13:56:22.477Z,1.60
2018-07-03T13:58:50.963Z,1.00
2018-07-03T14:01:19.288Z,1.20
2018-07-03T14:03:47.742Z,1.70
2018-07-03T14:06:16.087Z,1.53
2018-07-03T14:08:44.487Z,1.40
2018-07-03T14:11:12.901Z,1.17
2018-07-03T14:13:41.530Z,1.47
2018-07-03T14:16:09.959Z,0.97
2018-07-03T14:18:38.320Z,1.20
2018-07-03T14:21:06.677Z,1.20
2018-07-03T14:23:35.123Z,1.17
2018-07-03T14:26:03.488Z,1.40
2018-07-03T14:28:31.811Z,1.57
2018-07-03T14:31:00.308Z,1.23
2018-07-03T14:33:28.643Z,1.40
2018-07-03T14:35:57.003Z,1.50
2018-07-03T14:38:25.381Z,1.50
2018-07-03T14:40:53.747Z,1.30
2018-07-03T14:43:22.087Z,1.50
2018-07-03T14:45:50.428Z,1.40
2018-07-03T14:48:19.022Z,1.30
2018-07-03T14:50:47.545Z,1.33
2018-07-03T14:53:15.818Z,1.60
2018-07-03T14:55:44.391Z,1.27
2018-07-03T14:58:12.718Z,1.30
2018-07-03T15:00:41.246Z,1.37
2018-07-03T15:03:09.621Z,1.33
2018-07-03T15:05:37.983Z,1.10
2018-07-03T15:08:06.354Z,1.03
2018-07-03T15:10:34.709Z,1.20
2018-07-03T15:13:04.495Z,1.50
2018-07-03T15:15:32.892Z,1.53
2018-07-03T15:18:01.335Z,1.17
2018-07-03T15:20:29.817Z,1.50
2018-07-03T15:22:58.032Z,1.50
2018-07-03T15:25:26.411Z,1.17
2018-07-03T15:27:54.745Z,1.10
2018-07-03T15:30:23.082Z,1.10
2018-07-03T15:32:51.414Z,1.13
2018-07-03T15:35:19.811Z,1.20
2018-07-03T15:37:48.182Z,1.23
2018-07-03T15:40:16.571Z,1.43
2018-07-03T15:42:44.990Z,1.20
2018-07-03T15:45:15.110Z,1.30
2018-07-03T15:47:43.559Z,1.33
2018-07-03T15:50:12.738Z,1.00
2018-07-03T15:52:41.107Z,1.10
2018-07-03T15:55:10.007Z,1.10
2018-07-03T15:57:38.331Z,1.70
2018-07-03T16:00:08.857Z,1.30
2018-07-03T16:02:37.208Z,1.20
2018-07-03T16:05:17.886Z,1.43
2018-07-03T16:09:53.788Z,1.17
2018-07-03T16:12:22.184Z,1.40
2018-07-03T16:14:50.559Z,1.50
2018-07-03T16:17:24.427Z,1.30
2018-07-03T16:19:58.058Z,1.60
2018-07-03T16:22:26.415Z,1.33
2018-07-03T16:24:54.791Z,1.37
2018-07-03T16:27:23.122Z,1.23
2018-07-03T16:29:51.516Z,1.60
2018-07-03T16:32:26.490Z,1.60
2018-07-03T16:34:54.861Z,1.50
2018-07-03T16:37:23.190Z,1.50
2018-07-03T16:39:51.727Z,1.20
2018-07-03T16:42:20.067Z,1.90
2018-07-03T16:44:48.383Z,1.60
2018-07-03T16:47:16.757Z,1.77
2018-07-03T16:49:45.096Z,1.40
2018-07-03T16:52:13.443Z,1.33
2018-07-03T16:54:41.875Z,1.90
2018-07-03T16:57:10.331Z,1.23
2018-07-03T16:59:38.655Z,1.50
2018-07-03T17:02:06.991Z,1.03
2018-07-03T17:04:35.306Z,1.73
2018-07-03T17:07:03.680Z,1.40
2018-07-03T17:09:32.124Z,1.40
2018-07-03T17:12:00.595Z,1.20
2018-07-03T17:14:28.922Z,1.50
2018-07-03T17:16:57.276Z,1.23
2018-07-03T17:19:31.295Z,1.40
2018-07-03T17:21:59.630Z,1.30
2018-07-03T17:24:27.955Z,1.70
2018-07-03T17:26:56.468Z,3.50
2018-07-03T17:29:24.821Z,2.10
2018-07-03T17:31:52.938Z,1.00
2018-07-03T17:34:21.279Z,1.50
2018-07-03T17:36:49.623Z,1.10
2018-07-03T17:39:19.284Z,1.70
2018-07-03T17:41:59.178Z,2.03
2018-07-03T17:45:43.909Z,1.40
2018-07-03T17:48:13.431Z,1.50
2018-07-03T17:50:41.938Z,1.50
2018-07-03T17:53:10.326Z,1.40
2018-07-03T17:58:14.246Z,1.20
2018-07-03T18:00:42.599Z,1.20
2018-07-03T18:03:10.985Z,1.90
2018-07-03T18:05:39.303Z,1.37
2018-07-03T18:08:07.773Z,1.37
2018-07-03T18:10:36.114Z,1.70
2018-07-03T18:13:04.704Z,2.10
2018-07-03T18:15:32.738Z,1.70
2018-07-03T18:18:01.121Z,1.80
2018-07-03T18:20:29.474Z,1.23
2018-07-03T18:22:57.913Z,1.80
2018-07-03T18:25:25.969Z,1.80
2018-07-03T18:27:54.326Z,1.80
2018-07-03T18:30:22.659Z,1.67
2018-07-03T18:32:51.103Z,1.60
2018-07-03T18:35:19.586Z,1.33
2018-07-03T18:37:48.078Z,1.70
2018-07-03T18:40:16.526Z,1.47
2018-07-03T18:42:45.066Z,1.70
2018-07-03T18:45:13.439Z,2.43
2018-07-03T18:47:41.850Z,2.40
2018-07-03T18:50:10.207Z,3.00
2018-07-03T18:52:38.704Z,2.70
2018-07-03T18:55:07.050Z,1.80
2018-07-03T18:57:35.526Z,1.90
2018-07-03T19:00:04.028Z,1.90
2018-07-03T19:02:32.367Z,1.70
2018-07-03T19:05:00.818Z,2.00
2018-07-03T19:07:29.159Z,1.80
2018-07-03T19:09:57.474Z,2.20
2018-07-03T19:12:25.934Z,2.90
2018-07-03T19:14:54.314Z,2.80
2018-07-03T19:17:22.658Z,2.27
2018-07-03T19:19:51.062Z,2.60
2018-07-03T19:22:19.582Z,2.30
2018-07-03T19:24:47.959Z,1.90
2018-07-03T19:27:16.298Z,1.63
2018-07-03T19:29:44.615Z,1.73
2018-07-03T19:32:13.006Z,1.67
2018-07-03T19:34:41.341Z,2.00
2018-07-03T19:37:09.720Z,2.27
2018-07-03T19:39:38.111Z,2.20
2018-07-03T19:42:06.423Z,2.23
2018-07-03T19:44:34.770Z,2.10
2018-07-03T19:47:03.167Z,1.80
2018-07-03T19:49:31.224Z,2.00
2018-07-03T19:51:59.751Z,2.20
2018-07-03T19:54:28.127Z,2.57
2018-07-03T19:56:56.503Z,2.20
2018-07-03T19:59:24.919Z,2.20
2018-07-03T20:01:53.450Z,1.87
2018-07-03T20:04:22.634Z,1.80
2018-07-03T20:06:50.989Z,2.03
2018-07-03T20:09:19.383Z,2.70
2018-07-03T20:11:47.834Z,2.60
2018-07-03T20:14:16.161Z,2.43
2018-07-03T20:16:44.562Z,2.20
2018-07-03T20:19:14.297Z,1.77
2018-07-03T20:21:44.170Z,1.90
2018-07-03T20:24:12.650Z,2.03
2018-07-03T20:26:41.302Z,1.90
2018-07-03T20:29:09.690Z,2.33
2018-07-03T20:31:38.051Z,2.33
2018-07-03T20:34:06.410Z,2.70
2018-07-03T20:36:34.782Z,2.63
2018-07-03T20:39:04.507Z,2.20
2018-07-03T20:41:32.818Z,2.23
2018-07-03T20:44:01.174Z,1.90
2018-07-03T20:46:29.491Z,2.40
2018-07-03T20:49:03.533Z,2.30
2018-07-03T20:51:31.846Z,2.30
2018-07-03T20:54:00.195Z,2.00
2018-07-03T20:56:28.686Z,2.10
2018-07-03T20:58:57.034Z,2.40
2018-07-03T21:01:25.367Z,2.67
2018-07-03T21:03:53.791Z,2.77
2018-07-03T21:06:22.073Z,2.43
2018-07-03T21:08:50.427Z,3.10
2018-07-03T21:11:18.767Z,2.47
2018-07-03T21:13:47.131Z,2.37
2018-07-03T21:16:15.477Z,2.27
2018-07-03T21:18:43.830Z,1.90
2018-07-03T21:21:12.181Z,2.00
2018-07-03T21:23:40.750Z,1.97
2018-07-03T21:26:09.074Z,1.97
2018-07-03T21:28:37.423Z,2.30
2018-07-03T21:31:05.763Z,2.47
2018-07-03T21:33:34.102Z,1.80
2018-07-03T21:36:02.442Z,2.03
2018-07-03T21:38:37.703Z,2.30
2018-07-03T21:41:06.119Z,1.70
2018-07-03T21:43:34.446Z,2.67
2018-07-03T21:46:02.887Z,2.07
2018-07-03T21:48:30.966Z,2.27
2018-07-03T21:50:59.305Z,2.37
2018-07-03T21:53:27.655Z,2.10
2018-07-03T21:55:56.003Z,2.03
2018-07-03T21:58:24.387Z,1.93
2018-07-03T22:00:52.747Z,1.97
2018-07-03T22:03:21.056Z,2.30
2018-07-03T22:05:49.435Z,2.10
2018-07-03T22:08:17.767Z,1.70
2018-07-03T22:10:46.108Z,2.00
2018-07-03T22:13:14.419Z,2.20
2018-07-03T22:15:42.755Z,2.13
2018-07-03T22:18:11.089Z,2.00
2018-07-03T22:20:39.431Z,1.90
2018-07-03T22:23:07.746Z,1.63
2018-07-03T22:25:36.086Z,1.87
2018-07-03T22:28:04.412Z,1.63
2018-07-03T22:30:32.763Z,2.00
2018-07-03T22:33:01.086Z,1.50
2018-07-03T22:35:29.445Z,2.10
2018-07-03T22:37:57.798Z,1.57
2018-07-03T22:40:26.160Z,1.97
2018-07-03T22:42:54.495Z,1.60
2018-07-03T22:45:22.835Z,1.87
2018-07-03T22:47:51.180Z,1.67
2018-07-03T22:50:19.520Z,1.77
2018-07-03T22:52:47.852Z,2.00
2018-07-03T22:55:15.910Z,1.63
2018-07-03T22:57:44.219Z,2.03
2018-07-03T23:00:12.594Z,1.50
2018-07-03T23:02:40.929Z,1.70
2018-07-03T23:05:09.262Z,1.50
2018-07-03T23:07:37.587Z,1.97
2018-07-03T23:10:06.156Z,2.00
2018-07-03T23:12:34.483Z,1.80
2018-07-03T23:15:02.835Z,1.60
2018-07-03T23:17:31.151Z,1.77
2018-07-03T23:19:59.486Z,1.83
2018-07-03T23:22:27.803Z,1.60
2018-07-03T23:24:56.803Z,1.60
2018-07-03T23:27:25.120Z,1.90
2018-07-03T23:29:53.186Z,1.60
2018-07-03T23:32:21.511Z,2.00
2018-07-03T23:34:49.844Z,1.63
2018-07-03T23:37:18.175Z,1.70
2018-07-03T23:39:46.515Z,1.80
2018-07-03T23:42:14.863Z,1.60
2018-07-03T23:44:43.195Z,2.00
2018-07-03T23:47:22.717Z,1.97
2018-07-03T23:50:02.148Z,2.07
2018-07-03T23:52:41.647Z,1.60
2018-07-03T23:55:21.078Z,1.83
2018-07-03T23:58:00.532Z,1.50
